M I D A S
Marine Information and Data Acquisition System
Tripno 1246 of the Zeeleeuw from 2007-04-17 08:41:57 to 2007-04-17 12:48:01
Back to CruiseResearch ActivitiesStationsMapUnderway DataData graphs

EquipmentUnitsComment
TimeDGPSUTC
LatitudeDGPSDM.mWGS84
LongitudeDGPSDM.mWGS84
HeadingGyrodeg 
SOGDGPSknotsSpeed over ground
COGDGPSdegCourse over ground
DepthEcho soundermeters200 kHz
Missing or incorrect values are displayed as -999
Navigation data collected by the RV Zeeleeuw from 2007-04-17 08:44:07 to 2007-04-17 13:00:31
                                                                                    Next 1000 lines
Time Latitude Longitude Heading SOG COG Depth
2007-04-17 08:44:16 51°13.601 2°56.099 114.6 0.4 287 -999
2007-04-17 08:44:22 51°13.601 2°56.098 114.6 0.6 290 -999
2007-04-17 08:44:27 51°13.602 2°56.096 114.6 0.9 289 -999
2007-04-17 08:44:32 51°13.602 2°56.094 115 1.1 294 -999
2007-04-17 08:44:37 51°13.603 2°56.091 115.4 1.3 293 -999
2007-04-17 08:44:41 51°13.603 2°56.088 115.9 1.6 292 -999
2007-04-17 08:44:47 51°13.605 2°56.084 116.2 1.9 294 -999
2007-04-17 08:44:52 51°13.606 2°56.079 116.6 2.2 293 -999
2007-04-17 08:44:57 51°13.607 2°56.074 116.8 2.5 295 -999
2007-04-17 08:45:01 51°13.608 2°56.07 117.1 2.9 295 -999
2007-04-17 08:45:07 51°13.611 2°56.062 117.2 3.1 294 -999
2007-04-17 08:45:12 51°13.613 2°56.055 117.2 3.3 294 -999
2007-04-17 08:45:17 51°13.614 2°56.049 117.2 3.3 294 -999
2007-04-17 08:45:21 51°13.616 2°56.043 117.2 3.4 294 -999
2007-04-17 08:45:26 51°13.618 2°56.036 117.2 3.5 294 -999
2007-04-17 08:45:32 51°13.62 2°56.028 117.4 3.5 294 -999
2007-04-17 08:45:37 51°13.622 2°56.021 117.7 3.6 294 -999
2007-04-17 08:45:42 51°13.625 2°56.013 118.1 3.6 295 -999
2007-04-17 08:45:47 51°13.626 2°56.006 118.6 3.7 294 -999
2007-04-17 08:45:51 51°13.628 2°56 119 3.6 295 -999
2007-04-17 08:45:57 51°13.631 2°55.991 119.3 3.7 295 -999
2007-04-17 08:46:02 51°13.633 2°55.984 119.7 3.7 295 -999
2007-04-17 08:46:07 51°13.635 2°55.977 120 3.6 295 -999
2007-04-17 08:46:12 51°13.638 2°55.97 120.5 3.6 296 -999
2007-04-17 08:46:17 51°13.64 2°55.962 121.1 3.6 296 -999
2007-04-17 08:46:22 51°13.642 2°55.955 121.8 3.6 297 -999
2007-04-17 08:46:27 51°13.644 2°55.948 122.1 3.7 298 -999
2007-04-17 08:46:32 51°13.647 2°55.941 122.5 3.8 298 -999
2007-04-17 08:46:36 51°13.649 2°55.934 122.6 4 298 -999
2007-04-17 08:46:42 51°13.652 2°55.925 122.7 4.1 298 -999
2007-04-17 08:46:47 51°13.655 2°55.917 122.9 4 299 -999
2007-04-17 08:46:52 51°13.658 2°55.909 123 3.9 299 -999
2007-04-17 08:46:57 51°13.66 2°55.902 123 3.9 299 -999
2007-04-17 08:47:01 51°13.662 2°55.896 122.9 3.8 299 -999
2007-04-17 08:47:07 51°13.665 2°55.887 122.5 3.8 298 -999
2007-04-17 08:47:12 51°13.668 2°55.88 122 3.7 298 -999
2007-04-17 08:47:17 51°13.67 2°55.873 121.6 3.7 297 -999
2007-04-17 08:47:22 51°13.672 2°55.866 121.1 3.6 297 -999
2007-04-17 08:47:26 51°13.674 2°55.86 120.6 3.6 295 -999
2007-04-17 08:47:32 51°13.677 2°55.851 120.3 3.5 295 -999
2007-04-17 08:47:37 51°13.679 2°55.844 119.8 3.5 295 -999
2007-04-17 08:47:41 51°13.68 2°55.839 119.6 3.4 295 -999
2007-04-17 08:47:46 51°13.682 2°55.832 119.2 3.3 295 -999
2007-04-17 08:47:52 51°13.684 2°55.824 119 3.3 294 -999
2007-04-17 08:47:57 51°13.686 2°55.818 118.8 3.2 294 -999
2007-04-17 08:48:01 51°13.688 2°55.813 118.6 3.2 294 4.8
2007-04-17 08:48:06 51°13.689 2°55.806 118.4 3.1 294 -999
2007-04-17 08:48:11 51°13.691 2°55.8 118.2 3 294 4.6
2007-04-17 08:48:17 51°13.693 2°55.793 118 2.9 293 -999
2007-04-17 08:48:21 51°13.694 2°55.789 117.5 2.8 294 4.9
2007-04-17 08:48:26 51°13.696 2°55.783 116.9 2.8 292 -999
2007-04-17 08:48:31 51°13.697 2°55.777 116.6 2.8 292 11.7
2007-04-17 08:48:37 51°13.699 2°55.771 116.1 2.7 292 12.1
2007-04-17 08:48:42 51°13.7 2°55.765 115.8 2.7 291 12.8
2007-04-17 08:48:46 51°13.701 2°55.761 115.5 2.6 290 13.1
2007-04-17 08:48:51 51°13.703 2°55.756 115.3 2.5 291 13
2007-04-17 08:48:56 51°13.704 2°55.751 115.2 2.4 290 4.7
2007-04-17 08:49:02 51°13.705 2°55.746 115.4 2 291 12.7
2007-04-17 08:49:07 51°13.706 2°55.743 115.4 1.4 290 12.4
2007-04-17 08:49:11 51°13.706 2°55.742 115.2 0.9 289 12.3
2007-04-17 08:49:16 51°13.706 2°55.74 112.8 0.6 289 12.2
2007-04-17 08:49:21 51°13.707 2°55.74 110.4 0.3 293 12.2
2007-04-17 08:49:26 51°13.707 2°55.74 107 0.2 62 12.2
2007-04-17 08:49:31 51°13.707 2°55.741 104.5 0.4 90 12.2
2007-04-17 08:49:37 51°13.707 2°55.743 101 0.7 92 12.2
2007-04-17 08:49:41 51°13.707 2°55.744 96.8 0.7 87 12.6
2007-04-17 08:49:46 51°13.707 2°55.745 91.1 0.6 87 12.7
2007-04-17 08:49:51 51°13.707 2°55.746 87.7 0.4 97 12.8
2007-04-17 08:49:56 51°13.707 2°55.747 85.8 0.1 127 12.8
2007-04-17 08:50:01 51°13.706 2°55.746 83.6 0.4 233 12.8
2007-04-17 08:50:06 51°13.706 2°55.745 82 0.8 251 12.7
2007-04-17 08:50:11 51°13.706 2°55.743 80.5 1 249 12.6
2007-04-17 08:50:17 51°13.705 2°55.739 79.5 1.3 253 12.4
2007-04-17 08:50:21 51°13.704 2°55.737 78.8 1.3 250 12.2
2007-04-17 08:50:26 51°13.704 2°55.735 78.5 1.3 253 12.3
2007-04-17 08:50:32 51°13.703 2°55.731 78.3 1.2 251 -999
2007-04-17 08:50:37 51°13.703 2°55.729 78.3 1.1 251 -999
2007-04-17 08:50:42 51°13.703 2°55.727 77.8 0.9 250 -999
2007-04-17 08:50:47 51°13.702 2°55.726 77.2 0.8 249 -999
2007-04-17 08:50:51 51°13.702 2°55.725 76.3 0.6 251 -999
2007-04-17 08:50:56 51°13.702 2°55.724 75.2 0.4 249 -999
2007-04-17 08:51:02 51°13.702 2°55.723 73.8 0.2 258 -999
2007-04-17 08:51:07 51°13.702 2°55.723 72.2 0.1 267 -999
2007-04-17 08:51:12 51°13.702 2°55.723 70.2 0.1 48 -999
2007-04-17 08:51:17 51°13.702 2°55.723 68 0.3 59 -999
2007-04-17 08:51:22 51°13.702 2°55.724 65.4 0.4 58 -999
2007-04-17 08:51:26 51°13.703 2°55.725 63.2 0.6 54 4.8
2007-04-17 08:51:31 51°13.704 2°55.726 60.9 1 51 4.6
2007-04-17 08:51:37 51°13.705 2°55.729 59.1 1.5 49 4.7
2007-04-17 08:51:41 51°13.707 2°55.732 55.1 2 43 -999
2007-04-17 08:51:47 51°13.709 2°55.735 48.2 2.1 39 4.8
2007-04-17 08:51:51 51°13.711 2°55.737 41.3 1.9 31 4.8
2007-04-17 08:51:56 51°13.713 2°55.739 35.6 1.8 33 4.7
2007-04-17 08:52:01 51°13.715 2°55.741 32.8 1.7 27 -999
2007-04-17 08:52:06 51°13.717 2°55.742 30.2 1.4 28 12.1
2007-04-17 08:52:11 51°13.718 2°55.743 27.8 1.1 24 11.9
2007-04-17 08:52:17 51°13.72 2°55.744 24.8 0.8 24 11.9
2007-04-17 08:52:21 51°13.72 2°55.744 21.7 0.5 28 11.8
2007-04-17 08:52:26 51°13.72 2°55.745 18.8 0.1 95 11.7
2007-04-17 08:52:32 51°13.72 2°55.745 16.3 0.4 178 11.7
2007-04-17 08:52:37 51°13.718 2°55.745 14.2 0.9 180 11.9
2007-04-17 08:52:41 51°13.717 2°55.745 12.6 1.2 184 12
2007-04-17 08:52:46 51°13.715 2°55.744 11.6 1.5 183 11.9
2007-04-17 08:52:51 51°13.713 2°55.744 10.6 1.4 186 -999
2007-04-17 08:52:57 51°13.711 2°55.744 9.9 1.3 185 -999
2007-04-17 08:53:02 51°13.709 2°55.743 9.8 1.3 185 -999
2007-04-17 08:53:07 51°13.708 2°55.743 9.5 0.9 185 -999
2007-04-17 08:53:12 51°13.707 2°55.743 8.7 0.4 187 -999
2007-04-17 08:53:16 51°13.707 2°55.743 6.4 0.1 341 -999
2007-04-17 08:53:22 51°13.708 2°55.743 2.6 0.6 354 -999
2007-04-17 08:53:27 51°13.71 2°55.742 357.8 0.9 350 -999
2007-04-17 08:53:32 51°13.711 2°55.742 353.8 1.2 350 12.4
2007-04-17 08:53:36 51°13.712 2°55.741 349.9 1.4 341 4.6
2007-04-17 08:53:42 51°13.715 2°55.739 346.5 1.7 342 4.6
2007-04-17 08:53:46 51°13.717 2°55.737 342.9 2.1 335 4.7
2007-04-17 08:53:52 51°13.721 2°55.734 338.6 2.6 333 -999
2007-04-17 08:53:57 51°13.725 2°55.731 335.1 3 330 -999
2007-04-17 08:54:01 51°13.728 2°55.728 334.2 3.5 329 11.6
2007-04-17 08:54:06 51°13.732 2°55.723 333.9 3.9 328 11.3
2007-04-17 08:54:11 51°13.738 2°55.719 333.8 4.4 329 11.2
2007-04-17 08:54:17 51°13.744 2°55.712 333.9 4.8 328 11.1
2007-04-17 08:54:21 51°13.749 2°55.707 333.8 5.2 329 10.8
2007-04-17 08:54:26 51°13.756 2°55.701 333.8 5.5 329 10.7
2007-04-17 08:54:31 51°13.762 2°55.694 333.8 5.9 330 10.6
2007-04-17 08:54:37 51°13.771 2°55.686 334.4 6.2 331 10.5
2007-04-17 08:54:41 51°13.778 2°55.68 335.3 6.4 331 10.5
2007-04-17 08:54:46 51°13.786 2°55.673 335.7 6.6 331 10.7
2007-04-17 08:54:51 51°13.795 2°55.666 335.8 6.8 332 10.5
2007-04-17 08:54:57 51°13.806 2°55.658 336 6.9 332 10.5
2007-04-17 08:55:02 51°13.815 2°55.651 336.6 7.1 333 10.5
2007-04-17 08:55:06 51°13.822 2°55.645 337.2 7.2 333 10.6
2007-04-17 08:55:11 51°13.831 2°55.638 337.5 7.3 333 10.7
2007-04-17 08:55:17 51°13.842 2°55.63 337.8 5.7 333 10.6
2007-04-17 08:55:21 51°13.85 2°55.624 338.2 7.4 334 10.6
2007-04-17 08:55:26 51°13.859 2°55.617 338.7 7.5 333 10.6
2007-04-17 08:55:31 51°13.868 2°55.609 338.6 7.6 333 -999
2007-04-17 08:55:36 51°13.878 2°55.601 338 7.7 333 10.2
2007-04-17 08:55:42 51°13.89 2°55.593 338 7.7 334 10.3
2007-04-17 08:55:47 51°13.899 2°55.584 338.9 7.9 335 -999
2007-04-17 08:55:52 51°13.909 2°55.577 339.1 8.1 335 10.1
2007-04-17 08:55:56 51°13.917 2°55.571 338.8 8.1 334 10.3
2007-04-17 08:56:01 51°13.927 2°55.563 338.9 8.2 335 -999
2007-04-17 08:56:06 51°13.938 2°55.556 340 8.3 335 10.4
2007-04-17 08:56:11 51°13.949 2°55.548 340.4 8.4 334 10.9
2007-04-17 08:56:17 51°13.961 2°55.538 340.4 8.5 335 11.1
2007-04-17 08:56:21 51°13.97 2°55.531 340.3 8.6 336 11
2007-04-17 08:56:27 51°13.983 2°55.523 341 8.6 337 -999
2007-04-17 08:56:32 51°13.994 2°55.515 341.2 8.6 336 -999
2007-04-17 08:56:37 51°14.004 2°55.507 340.8 8.7 336 -999
2007-04-17 08:56:42 51°14.015 2°55.499 340.5 8.7 335 -999
2007-04-17 08:56:46 51°14.024 2°55.492 340.3 8.7 335 10.7
2007-04-17 08:56:51 51°14.034 2°55.483 340.1 8.7 335 10.5
2007-04-17 08:56:57 51°14.047 2°55.474 340 8.7 335 10.8
2007-04-17 08:57:01 51°14.056 2°55.467 340.4 8.7 336 10.9
2007-04-17 08:57:06 51°14.067 2°55.46 340.7 8.7 336 11.2
2007-04-17 08:57:11 51°14.078 2°55.452 340.8 8.7 337 11.2
2007-04-17 08:57:17 51°14.091 2°55.443 341.1 8.7 338 -999
2007-04-17 08:57:21 51°14.1 2°55.437 341.8 8.7 338 11.3
2007-04-17 08:57:26 51°14.11 2°55.43 341.9 8.7 336 4.6
2007-04-17 08:57:31 51°14.121 2°55.422 341.1 8.6 335 4.7
2007-04-17 08:57:37 51°14.134 2°55.412 339.9 8.6 334 4.6
2007-04-17 08:57:42 51°14.144 2°55.403 338.2 8.5 333 -999
2007-04-17 08:57:47 51°14.155 2°55.395 337.1 8.5 332 -999
2007-04-17 08:57:51 51°14.164 2°55.388 336.7 8.5 331 11.6
2007-04-17 08:57:56 51°14.174 2°55.378 334.8 8.5 327 -999
2007-04-17 08:58:02 51°14.185 2°55.365 331.7 8.5 324 -999
2007-04-17 08:58:07 51°14.195 2°55.354 329.2 8.5 323 -999
2007-04-17 08:58:11 51°14.202 2°55.344 327.7 8.7 320 4.6
2007-04-17 08:58:16 51°14.212 2°55.331 326.1 9 320 4.6
2007-04-17 08:58:21 51°14.221 2°55.317 325.1 9.2 317 4.6
2007-04-17 08:58:27 51°14.232 2°55.3 323.2 9.4 315 -999
2007-04-17 08:58:31 51°14.239 2°55.287 320.8 9.5 315 11.3
2007-04-17 08:58:36 51°14.249 2°55.272 320.2 9.7 315 10.9
2007-04-17 08:58:41 51°14.258 2°55.257 320 9.8 314 10.7
2007-04-17 08:58:46 51°14.268 2°55.241 319 9.9 313 10.8
2007-04-17 08:58:51 51°14.277 2°55.225 317.8 10 313 11.1
2007-04-17 08:58:57 51°14.289 2°55.205 317.6 10.1 312 10.8
2007-04-17 08:59:01 51°14.296 2°55.191 317 10.3 311 11
2007-04-17 08:59:06 51°14.305 2°55.173 315.8 10.6 310 11
2007-04-17 08:59:11 51°14.315 2°55.155 315.1 11 310 10.7
2007-04-17 08:59:17 51°14.327 2°55.131 314.5 11.4 308 10.5
2007-04-17 08:59:21 51°14.334 2°55.114 312.9 11.8 307 10.9
2007-04-17 08:59:26 51°14.344 2°55.093 311.5 12 307 10.7
2007-04-17 08:59:31 51°14.354 2°55.072 311.3 12.1 306 10.5
2007-04-17 08:59:37 51°14.366 2°55.045 311.5 12.2 304 10.3
2007-04-17 08:59:41 51°14.373 2°55.026 310.4 12.4 298 10
2007-04-17 08:59:46 51°14.38 2°55.001 306.3 12.5 296 9.9
2007-04-17 08:59:51 51°14.388 2°54.976 304 12.6 296 9.8
2007-04-17 08:59:56 51°14.395 2°54.951 303 12.8 295 9.7
2007-04-17 09:00:02 51°14.404 2°54.92 302.8 12.9 295 10.2
2007-04-17 09:00:06 51°14.41 2°54.899 302.4 13.1 295 10.3
2007-04-17 09:00:11 51°14.419 2°54.873 302.5 13.1 298 10.6
2007-04-17 09:00:16 51°14.427 2°54.847 303.7 13.3 296 10.7
2007-04-17 09:00:21 51°14.435 2°54.82 303.9 13.3 296 10.3
2007-04-17 09:00:26 51°14.443 2°54.794 303.8 13.4 296 10.8
2007-04-17 09:00:31 51°14.451 2°54.767 303.5 13.4 296 10
2007-04-17 09:00:36 51°14.46 2°54.741 303.3 13.4 296 10.5
2007-04-17 09:00:41 51°14.467 2°54.713 303.8 13.4 295 10.4
2007-04-17 09:00:46 51°14.475 2°54.686 302.9 13.5 295 10.8
2007-04-17 09:00:51 51°14.483 2°54.659 302.6 13.5 294 10.1
2007-04-17 09:00:56 51°14.491 2°54.632 302.3 13.5 295 10.2
2007-04-17 09:01:01 51°14.498 2°54.605 302.4 13.5 292 11.1
2007-04-17 09:01:06 51°14.505 2°54.577 301 13.5 291 10.4
2007-04-17 09:01:11 51°14.511 2°54.549 299.6 13.6 290 11
2007-04-17 09:01:17 51°14.519 2°54.515 298.2 13.6 290 10.3
2007-04-17 09:01:21 51°14.524 2°54.492 297.3 13.7 288 10.5
2007-04-17 09:01:26 51°14.53 2°54.463 296.3 13.7 288 10.2
2007-04-17 09:01:31 51°14.535 2°54.434 295.7 13.7 287 10.3
2007-04-17 09:01:37 51°14.542 2°54.4 295.3 13.7 288 10.4
2007-04-17 09:01:41 51°14.547 2°54.376 295.4 13.7 288 11.1
2007-04-17 09:01:46 51°14.553 2°54.348 295.4 13.7 289 10.9
2007-04-17 09:01:51 51°14.559 2°54.319 296.1 13.7 288 10.8
2007-04-17 09:01:56 51°14.565 2°54.291 296.1 13.7 290 10.9
2007-04-17 09:02:01 51°14.571 2°54.262 296.8 13.7 288 10.3
2007-04-17 09:02:06 51°14.578 2°54.233 296.7 13.7 289 11
2007-04-17 09:02:11 51°14.583 2°54.204 296.2 13.8 287 11
2007-04-17 09:02:16 51°14.589 2°54.176 295.5 13.6 288 10.9
2007-04-17 09:02:21 51°14.594 2°54.147 295.5 13.5 287 10.5
2007-04-17 09:02:26 51°14.6 2°54.118 295.7 13.6 285 11.1
2007-04-17 09:02:31 51°14.604 2°54.089 293.2 13.6 282 10.6
2007-04-17 09:02:36 51°14.608 2°54.059 291 13.6 282 10.8
2007-04-17 09:02:41 51°14.611 2°54.03 289.2 13.6 280 10.8
2007-04-17 09:02:46 51°14.615 2°54 287.9 13.5 281 11
2007-04-17 09:02:51 51°14.618 2°53.97 287.4 13.6 279 11.1
2007-04-17 09:02:56 51°14.621 2°53.941 286.5 13.6 279 10.6
2007-04-17 09:03:01 51°14.623 2°53.911 285.9 13.7 278 10.4
2007-04-17 09:03:06 51°14.626 2°53.881 285 13.7 278 11.1
2007-04-17 09:03:11 51°14.629 2°53.851 284.7 13.7 278 11.3
2007-04-17 09:03:16 51°14.631 2°53.821 284.7 13.7 278 10.9
2007-04-17 09:03:21 51°14.634 2°53.791 284.4 13.7 278 10.3
2007-04-17 09:03:26 51°14.636 2°53.762 285.2 13.6 278 10.6
2007-04-17 09:03:31 51°14.638 2°53.732 285.2 13.6 276 9.6
2007-04-17 09:03:36 51°14.641 2°53.702 284.6 13.5 277 9.4
2007-04-17 09:03:41 51°14.643 2°53.672 284.3 13.5 276 9.1
2007-04-17 09:03:46 51°14.644 2°53.643 283.9 13.4 276 8.7
2007-04-17 09:03:51 51°14.646 2°53.613 283.5 13.4 274 8.3
2007-04-17 09:03:56 51°14.647 2°53.584 282.6 13.4 274 8.3
2007-04-17 09:04:01 51°14.648 2°53.554 282.1 13.4 272 8.2
2007-04-17 09:04:06 51°14.649 2°53.525 280.9 13.5 272 8.2
2007-04-17 09:04:11 51°14.649 2°53.494 279.7 13.6 271 8.2
2007-04-17 09:04:16 51°14.649 2°53.464 279.2 13.6 270 8.3
2007-04-17 09:04:21 51°14.649 2°53.434 278.4 13.6 270 8.4
2007-04-17 09:04:26 51°14.649 2°53.404 278 13.6 270 8.3
2007-04-17 09:04:31 51°14.65 2°53.374 277.5 13.6 270 8.4
2007-04-17 09:04:36 51°14.649 2°53.344 277.8 13.6 270 8.4
2007-04-17 09:04:41 51°14.649 2°53.313 277.5 13.7 270 8.5
2007-04-17 09:04:46 51°14.65 2°53.283 277.1 13.7 271 8.4
2007-04-17 09:04:51 51°14.65 2°53.253 277.5 13.6 270 8.5
2007-04-17 09:04:56 51°14.65 2°53.223 277.4 13.6 271 8.5
2007-04-17 09:05:01 51°14.65 2°53.193 277.9 13.7 270 8.3
2007-04-17 09:05:06 51°14.65 2°53.162 277.7 13.8 270 8.4
2007-04-17 09:05:11 51°14.65 2°53.131 277.6 13.9 270 8.3
2007-04-17 09:05:16 51°14.65 2°53.101 277.5 13.8 271 8.3
2007-04-17 09:05:21 51°14.65 2°53.07 278 13.8 270 8.3
2007-04-17 09:05:26 51°14.65 2°53.04 277.9 13.7 271 8.5
2007-04-17 09:05:31 51°14.651 2°53.01 277.9 13.8 271 8.5
2007-04-17 09:05:36 51°14.651 2°52.979 278 13.8 271 8.6
2007-04-17 09:05:41 51°14.651 2°52.949 278.2 13.8 271 8.6
2007-04-17 09:05:46 51°14.652 2°52.918 278.6 13.9 272 8.6
2007-04-17 09:05:51 51°14.652 2°52.887 278.6 13.9 271 8.5
2007-04-17 09:05:56 51°14.652 2°52.857 278.7 13.9 271 8.7
2007-04-17 09:06:01 51°14.652 2°52.826 278.2 13.9 270 8.7
2007-04-17 09:06:06 51°14.652 2°52.796 277.8 14 269 8.8
2007-04-17 09:06:11 51°14.652 2°52.765 277.4 14 268 8.8
2007-04-17 09:06:16 51°14.65 2°52.734 276.1 14.1 265 8.8
2007-04-17 09:06:21 51°14.648 2°52.703 273.6 14.1 265 8.8
2007-04-17 09:06:26 51°14.645 2°52.672 272.1 14.2 262 8.8
2007-04-17 09:06:31 51°14.643 2°52.641 270.7 14.2 263 8.8
2007-04-17 09:06:36 51°14.639 2°52.61 270 14.2 260 8.8
2007-04-17 09:06:41 51°14.637 2°52.578 268.4 14.3 262 8.9
2007-04-17 09:06:46 51°14.633 2°52.547 268.4 14.3 261 9
2007-04-17 09:06:51 51°14.631 2°52.516 268 14.2 262 8.9
2007-04-17 09:06:56 51°14.627 2°52.485 268.1 14.2 261 8.9
2007-04-17 09:07:01 51°14.625 2°52.454 268.2 14.2 261 8.9
2007-04-17 09:07:06 51°14.622 2°52.423 268.8 14.2 262 8.9
2007-04-17 09:07:11 51°14.619 2°52.392 269.5 14 261 8.9
2007-04-17 09:07:16 51°14.614 2°52.362 267.8 14.2 255 9
2007-04-17 09:07:21 51°14.609 2°52.332 263.7 14.2 255 8.9
2007-04-17 09:07:26 51°14.602 2°52.302 261.2 14.2 251 8.9
2007-04-17 09:07:31 51°14.596 2°52.272 258.3 14.2 250 9
2007-04-17 09:07:36 51°14.588 2°52.243 256.3 14.3 248 9
2007-04-17 09:07:41 51°14.581 2°52.213 254.7 14.4 249 9
2007-04-17 09:07:46 51°14.573 2°52.184 254 14.3 248 8.9
2007-04-17 09:07:51 51°14.566 2°52.155 253.3 14.4 248 9
2007-04-17 09:07:56 51°14.557 2°52.125 252.7 14.4 249 8.9
2007-04-17 09:08:01 51°14.55 2°52.096 253 14.4 246 9
2007-04-17 09:08:06 51°14.542 2°52.067 251.8 14.3 248 9
2007-04-17 09:08:11 51°14.535 2°52.038 253.1 14.4 246 9
2007-04-17 09:08:16 51°14.527 2°52.008 252.5 14.4 251 8.9
2007-04-17 09:08:21 51°14.52 2°51.979 253.5 14.3 247 8.9
2007-04-17 09:08:26 51°14.512 2°51.95 253.3 14.4 248 9
2007-04-17 09:08:31 51°14.504 2°51.92 253 14.5 247 8.9
2007-04-17 09:08:36 51°14.496 2°51.891 252.9 14.4 249 8.9
2007-04-17 09:08:41 51°14.489 2°51.861 252.8 14.3 248 8.9
2007-04-17 09:08:46 51°14.481 2°51.832 253.3 14.3 248 8.9
2007-04-17 09:08:51 51°14.474 2°51.802 253.3 14.4 248 8.9
2007-04-17 09:08:56 51°14.467 2°51.773 253.5 14.4 249 8.8
2007-04-17 09:09:01 51°14.46 2°51.744 254 14.4 249 8.9
2007-04-17 09:09:06 51°14.452 2°51.714 254 14.4 248 8.8
2007-04-17 09:09:11 51°14.446 2°51.684 254 14.3 250 8.7
2007-04-17 09:09:16 51°14.438 2°51.655 255.1 14.3 247 8.7
2007-04-17 09:09:21 51°14.431 2°51.625 254.3 14.4 250 8.8
2007-04-17 09:09:26 51°14.424 2°51.596 254.9 14.4 248 8.9
2007-04-17 09:09:31 51°14.416 2°51.566 254.6 14.5 249 8.7
2007-04-17 09:09:36 51°14.409 2°51.536 254.6 14.4 249 8.8
2007-04-17 09:09:41 51°14.402 2°51.507 254.9 14.4 247 8.8
2007-04-17 09:09:46 51°14.395 2°51.476 253.7 14.5 250 8.7
2007-04-17 09:09:51 51°14.387 2°51.447 254.8 14.4 249 8.6
2007-04-17 09:09:56 51°14.381 2°51.417 254.9 14.4 248 8.7
2007-04-17 09:10:01 51°14.373 2°51.387 254.8 14.4 250 8.8
2007-04-17 09:10:06 51°14.366 2°51.357 255.6 14.3 249 8.7
2007-04-17 09:10:11 51°14.36 2°51.327 255.2 14.5 250 8.7
2007-04-17 09:10:16 51°14.353 2°51.297 255.2 14.4 251 8.7
2007-04-17 09:10:21 51°14.346 2°51.267 256.5 14.4 249 8.7
2007-04-17 09:10:26 51°14.339 2°51.237 255.2 14.5 250 8.7
2007-04-17 09:10:31 51°14.332 2°51.207 255.9 14.5 250 8.7
2007-04-17 09:10:36 51°14.325 2°51.177 256 14.4 251 8.6
2007-04-17 09:10:41 51°14.318 2°51.147 256 14.5 249 8.7
2007-04-17 09:10:46 51°14.31 2°51.118 255.3 14.5 249 8.7
2007-04-17 09:10:51 51°14.303 2°51.088 254.7 14.4 248 8.6
2007-04-17 09:10:56 51°14.296 2°51.058 254.3 14.5 251 8.6
2007-04-17 09:11:01 51°14.289 2°51.028 254.6 14.5 248 8.6
2007-04-17 09:11:06 51°14.282 2°50.998 255 14.4 250 8.7
2007-04-17 09:11:11 51°14.274 2°50.969 255.1 14.4 247 8.6
2007-04-17 09:11:16 51°14.267 2°50.939 254.1 14.5 248 8.6
2007-04-17 09:11:21 51°14.26 2°50.909 254.4 14.5 250 8.6
2007-04-17 09:11:26 51°14.252 2°50.879 254.7 14.6 247 8.5
2007-04-17 09:11:31 51°14.245 2°50.849 253.3 14.5 251 8.7
2007-04-17 09:11:36 51°14.237 2°50.82 254.7 14.6 246 8.6
2007-04-17 09:11:41 51°14.23 2°50.79 253.7 14.5 251 8.7
2007-04-17 09:11:46 51°14.222 2°50.761 254.5 14.7 245 8.6
2007-04-17 09:11:51 51°14.215 2°50.73 253.6 14.6 251 8.6
2007-04-17 09:11:56 51°14.207 2°50.7 254.8 14.7 246 8.6
2007-04-17 09:12:01 51°14.2 2°50.67 254.2 14.5 250 8.6
2007-04-17 09:12:06 51°14.192 2°50.64 254.5 14.6 249 8.6
2007-04-17 09:12:11 51°14.186 2°50.61 254.7 14.5 251 8.5
2007-04-17 09:12:16 51°14.179 2°50.58 255.9 14.5 249 8.6
2007-04-17 09:12:21 51°14.172 2°50.55 255.3 14.6 250 8.7
2007-04-17 09:12:26 51°14.165 2°50.52 255.5 14.6 251 8.7
2007-04-17 09:12:31 51°14.158 2°50.49 256.1 14.6 250 8.5
2007-04-17 09:12:36 51°14.151 2°50.46 256.2 14.1 249 8.7
2007-04-17 09:12:41 51°14.145 2°50.432 255.6 13.5 249 8.8
2007-04-17 09:12:46 51°14.139 2°50.405 255.4 13 250 8.7
2007-04-17 09:12:51 51°14.132 2°50.379 255.6 12.6 248 8.5
2007-04-17 09:12:56 51°14.126 2°50.354 255.2 11.7 248 8.4
2007-04-17 09:13:01 51°14.119 2°50.333 254.7 10.9 243 8.8
2007-04-17 09:13:06 51°14.112 2°50.314 251.2 10 237 8.9
2007-04-17 09:13:11 51°14.104 2°50.297 245.5 9.3 235 8.9
2007-04-17 09:13:16 51°14.096 2°50.283 238.4 8.6 227 8.9
2007-04-17 09:13:21 51°14.088 2°50.27 233.8 8 223 9
2007-04-17 09:13:26 51°14.08 2°50.259 228.6 7.7 220 9
2007-04-17 09:13:31 51°14.072 2°50.25 223.7 7.2 217 8.8
2007-04-17 09:13:36 51°14.064 2°50.242 217.9 6.7 212 9
2007-04-17 09:13:41 51°14.056 2°50.235 213.7 6.3 210 9
2007-04-17 09:13:46 51°14.049 2°50.229 208.7 6 206 9
2007-04-17 09:13:51 51°14.041 2°50.224 205.2 5.7 206 8.7
2007-04-17 09:13:56 51°14.034 2°50.219 202.1 5.4 203 8.8
2007-04-17 09:14:01 51°14.028 2°50.214 200.3 5.2 205 8.7
2007-04-17 09:14:06 51°14.022 2°50.209 200.2 4.8 206 8.7
2007-04-17 09:14:11 51°14.016 2°50.205 201.3 4.6 208 8.7
2007-04-17 09:14:16 51°14.011 2°50.2 203 4.1 211 8.8
2007-04-17 09:14:21 51°14.007 2°50.195 205.7 3.9 212 8.8
2007-04-17 09:14:26 51°14.002 2°50.19 209.9 3.7 218 8.7
2007-04-17 09:14:31 51°13.998 2°50.186 216 3.6 216 8.6
2007-04-17 09:14:36 51°13.995 2°50.18 219.1 3.4 221 8.7
2007-04-17 09:14:41 51°13.991 2°50.175 222.5 3.3 221 8.6
2007-04-17 09:14:46 51°13.988 2°50.171 225.4 3.3 224 8.5
2007-04-17 09:14:51 51°13.985 2°50.166 228.2 3.2 226 8.6
2007-04-17 09:14:56 51°13.982 2°50.161 230.9 3.2 226 8.5
2007-04-17 09:15:01 51°13.979 2°50.156 232.4 3.1 227 8.5
2007-04-17 09:15:06 51°13.976 2°50.151 233.6 3.1 227 8.5
2007-04-17 09:15:11 51°13.973 2°50.146 234.5 3 228 8.6
2007-04-17 09:15:16 51°13.97 2°50.141 235.5 3.1 226 8.6
2007-04-17 09:15:21 51°13.967 2°50.136 236 3.1 228 8.6
2007-04-17 09:15:26 51°13.965 2°50.131 236 3.1 226 8.6
2007-04-17 09:15:31 51°13.962 2°50.126 235.8 3.1 228 8.5
2007-04-17 09:15:36 51°13.959 2°50.121 236 3.1 228 8.5
2007-04-17 09:15:41 51°13.956 2°50.116 237 3.1 228 8.6
2007-04-17 09:15:46 51°13.953 2°50.111 238 3.1 229 8.5
2007-04-17 09:15:51 51°13.95 2°50.106 239.6 3.1 230 8.5
2007-04-17 09:15:56 51°13.947 2°50.1 241.3 3.1 230 8.5
2007-04-17 09:16:01 51°13.945 2°50.095 242.9 3.2 231 8.6
2007-04-17 09:16:06 51°13.942 2°50.089 244.6 3.3 235 8.5
2007-04-17 09:16:11 51°13.939 2°50.082 246.8 3.5 236 8.4
2007-04-17 09:16:16 51°13.937 2°50.075 249.3 3.7 241 8.5
2007-04-17 09:16:21 51°13.934 2°50.068 252.3 3.8 242 8.5
2007-04-17 09:16:26 51°13.932 2°50.06 255.1 3.9 243 8.4
2007-04-17 09:16:31 51°13.93 2°50.052 258 3.9 246 8.4
2007-04-17 09:16:36 51°13.928 2°50.044 261.2 4 249 8.4
2007-04-17 09:16:41 51°13.926 2°50.036 264.4 4 252 8.5
2007-04-17 09:16:46 51°13.924 2°50.027 267.8 4 254 8.5
2007-04-17 09:16:51 51°13.923 2°50.019 270.7 4 256 8.5
2007-04-17 09:16:56 51°13.922 2°50.01 273.6 4 259 8.5
2007-04-17 09:17:01 51°13.921 2°50.001 276.5 4 260 8.5
2007-04-17 09:17:06 51°13.92 2°49.992 279.1 4.1 262 8.6
2007-04-17 09:17:11 51°13.919 2°49.984 281.8 4 264 8.4
2007-04-17 09:17:16 51°13.919 2°49.974 284.1 4.2 266 8.5
2007-04-17 09:17:21 51°13.919 2°49.965 286.5 4.2 269 8.6
2007-04-17 09:17:26 51°13.918 2°49.955 288.1 4.4 269 8.5
2007-04-17 09:17:31 51°13.919 2°49.945 289.5 4.5 272 8.6
2007-04-17 09:17:36 51°13.919 2°49.935 291 4.5 273 8.6
2007-04-17 09:17:41 51°13.919 2°49.925 292.3 4.5 274 8.6
2007-04-17 09:17:46 51°13.92 2°49.915 293.4 4.5 273 8.6
2007-04-17 09:17:51 51°13.92 2°49.905 294.6 4.6 274 8.5
2007-04-17 09:17:56 51°13.92 2°49.895 294.8 4.6 274 8.5
2007-04-17 09:18:01 51°13.921 2°49.885 295.2 4.6 274 8.6
2007-04-17 09:18:06 51°13.921 2°49.875 295.3 4.6 274 8.6
2007-04-17 09:18:11 51°13.922 2°49.865 295.3 4.6 273 8.6
2007-04-17 09:18:16 51°13.922 2°49.854 295.4 4.7 272 8.8
2007-04-17 09:18:21 51°13.922 2°49.844 294.5 4.7 273 8.8
2007-04-17 09:18:26 51°13.923 2°49.833 294 4.7 273 8.6
2007-04-17 09:18:31 51°13.923 2°49.823 294.2 4.7 275 8.8
2007-04-17 09:18:36 51°13.924 2°49.813 294.6 4.7 275 8.6
2007-04-17 09:18:41 51°13.924 2°49.802 294.7 4.7 275 8.7
2007-04-17 09:18:46 51°13.925 2°49.792 294.2 4.6 273 8.6
2007-04-17 09:18:51 51°13.925 2°49.782 293.4 4.6 272 8.6
2007-04-17 09:18:56 51°13.925 2°49.772 291.9 4.6 269 8.8
2007-04-17 09:19:01 51°13.924 2°49.762 290.3 4.6 267 8.5
2007-04-17 09:19:06 51°13.924 2°49.752 288.3 4.5 266 8.7
2007-04-17 09:19:11 51°13.923 2°49.742 286.2 4.5 263 8.5
2007-04-17 09:19:16 51°13.923 2°49.733 284.1 4.4 263 8.6
2007-04-17 09:19:21 51°13.922 2°49.723 282.8 4.3 261 8.8
2007-04-17 09:19:26 51°13.921 2°49.714 282.3 4.2 262 8.9
2007-04-17 09:19:31 51°13.92 2°49.705 282.2 4.1 261 8.7
2007-04-17 09:19:36 51°13.919 2°49.696 282.3 4 262 9
2007-04-17 09:19:41 51°13.918 2°49.688 282.7 3.9 261 9
2007-04-17 09:19:46 51°13.918 2°49.679 282.9 3.8 261 8.6
2007-04-17 09:19:51 51°13.917 2°49.671 283.3 3.7 260 9
2007-04-17 09:19:56 51°13.916 2°49.663 283.7 3.7 259 8.9
2007-04-17 09:20:01 51°13.915 2°49.655 284.1 3.6 259 9
2007-04-17 09:20:06 51°13.914 2°49.647 284.3 3.5 260 8.7
2007-04-17 09:20:11 51°13.913 2°49.64 284.3 3.4 258 8.9
2007-04-17 09:20:16 51°13.912 2°49.633 284.4 3.4 258 9
2007-04-17 09:20:21 51°13.911 2°49.626 284.2 3.3 257 8.9
2007-04-17 09:20:26 51°13.91 2°49.618 283.8 3.3 257 8.9
2007-04-17 09:20:31 51°13.909 2°49.611 283.7 3.2 256 9
2007-04-17 09:20:36 51°13.908 2°49.605 283.8 3.2 256 8.9
2007-04-17 09:20:41 51°13.907 2°49.598 283.8 3.1 257 9
2007-04-17 09:20:46 51°13.906 2°49.591 283.9 3.1 257 8.9
2007-04-17 09:20:51 51°13.905 2°49.585 284.1 3.1 256 8.8
2007-04-17 09:20:56 51°13.904 2°49.578 284.5 3 255 9
2007-04-17 09:21:01 51°13.903 2°49.572 284.1 3 254 8.8
2007-04-17 09:21:06 51°13.902 2°49.565 283.6 3.1 255 9
2007-04-17 09:21:11 51°13.9 2°49.559 282.8 3.2 254 9.1
2007-04-17 09:21:16 51°13.899 2°49.552 282.3 3.2 254 9
2007-04-17 09:21:21 51°13.898 2°49.545 281.3 3.2 254 8.9
2007-04-17 09:21:26 51°13.897 2°49.538 280.3 3.2 251 9.2
2007-04-17 09:21:31 51°13.895 2°49.531 279 3.3 251 9
2007-04-17 09:21:36 51°13.894 2°49.524 277.2 3.4 250 9.1
2007-04-17 09:21:41 51°13.892 2°49.517 275.2 3.4 250 8.8
2007-04-17 09:21:46 51°13.891 2°49.51 273.6 3.4 252 9
2007-04-17 09:21:51 51°13.889 2°49.503 272.1 3.5 250 8.9
2007-04-17 09:21:56 51°13.887 2°49.496 270.6 3.5 249 9.1
2007-04-17 09:22:01 51°13.886 2°49.488 269.5 3.5 250 9
2007-04-17 09:22:06 51°13.884 2°49.481 268.7 3.6 249 9.1
2007-04-17 09:22:11 51°13.882 2°49.474 268.3 3.6 249 9.2
2007-04-17 09:22:16 51°13.88 2°49.466 268.2 3.7 248 9
2007-04-17 09:22:21 51°13.879 2°49.459 268.3 3.6 250 9
2007-04-17 09:22:26 51°13.877 2°49.451 268.5 3.6 250 9.1
2007-04-17 09:22:31 51°13.875 2°49.444 268.8 3.6 250 9
2007-04-17 09:22:36 51°13.874 2°49.436 269.2 3.6 249 9.1
2007-04-17 09:22:41 51°13.872 2°49.429 269.4 3.6 251 9
2007-04-17 09:22:46 51°13.87 2°49.421 269.9 3.6 250 9.2
2007-04-17 09:22:51 51°13.869 2°49.414 270.3 3.6 252 9.2
2007-04-17 09:22:56 51°13.867 2°49.407 271 3.5 251 9.3
2007-04-17 09:23:01 51°13.866 2°49.4 271.5 3.4 252 9.3
2007-04-17 09:23:06 51°13.864 2°49.393 271.4 3.4 251 9
2007-04-17 09:23:11 51°13.863 2°49.385 271.5 3.4 251 9.4
2007-04-17 09:23:16 51°13.861 2°49.378 271.6 3.4 250 9.3
2007-04-17 09:23:21 51°13.86 2°49.371 271.8 3.4 251 9.3
2007-04-17 09:23:26 51°13.858 2°49.364 271.6 3.4 250 9.3
2007-04-17 09:23:31 51°13.857 2°49.357 271 3.4 248 9.4
2007-04-17 09:23:36 51°13.855 2°49.35 270.5 3.3 249 9.2
2007-04-17 09:23:41 51°13.853 2°49.343 269.6 3.4 247 9.4
2007-04-17 09:23:46 51°13.851 2°49.336 269 3.4 248 9.3
2007-04-17 09:23:51 51°13.85 2°49.329 268.4 3.4 247 9.3
2007-04-17 09:23:56 51°13.848 2°49.323 267.9 3.4 246 9.5
2007-04-17 09:24:01 51°13.846 2°49.316 267.3 3.4 245 9.4
2007-04-17 09:24:06 51°13.844 2°49.309 266.3 3.4 244 9.3
2007-04-17 09:24:11 51°13.842 2°49.302 265.7 3.4 243 9.5
2007-04-17 09:24:16 51°13.84 2°49.296 264.9 3.4 244 9.4
2007-04-17 09:24:21 51°13.838 2°49.289 264.1 3.4 244 9.3
2007-04-17 09:24:26 51°13.836 2°49.282 263.2 3.4 243 9.4
2007-04-17 09:24:31 51°13.833 2°49.276 262.6 3.4 242 9.4
2007-04-17 09:24:36 51°13.831 2°49.269 261.9 3.4 241 9.5
2007-04-17 09:24:41 51°13.829 2°49.262 261.5 3.4 243 9.5
2007-04-17 09:24:46 51°13.827 2°49.256 261.2 3.4 244 9.4
2007-04-17 09:24:51 51°13.825 2°49.249 261 3.4 243 9.6
2007-04-17 09:24:56 51°13.823 2°49.242 260.7 3.4 242 9.3
2007-04-17 09:25:01 51°13.821 2°49.236 260.1 3.4 242 9.4
2007-04-17 09:25:06 51°13.818 2°49.229 259.8 3.4 242 9.3
2007-04-17 09:25:11 51°13.816 2°49.223 259.5 3.5 240 9.2
2007-04-17 09:25:16 51°13.814 2°49.216 258.9 3.4 241 9.3
2007-04-17 09:25:21 51°13.812 2°49.209 258.4 3.4 240 9.1
2007-04-17 09:25:26 51°13.809 2°49.203 258 3.4 241 9.4
2007-04-17 09:25:31 51°13.807 2°49.196 257.6 3.4 241 9.3
2007-04-17 09:25:36 51°13.805 2°49.19 257.2 3.4 240 9.4
2007-04-17 09:25:41 51°13.802 2°49.183 256.9 3.4 239 9.4
2007-04-17 09:25:46 51°13.8 2°49.176 256.3 3.4 239 9.5
2007-04-17 09:25:51 51°13.797 2°49.17 255.7 3.4 239 9.3
2007-04-17 09:25:56 51°13.795 2°49.163 254.8 3.5 239 9.3
2007-04-17 09:26:01 51°13.792 2°49.157 254 3.5 237 9.4
2007-04-17 09:26:06 51°13.789 2°49.15 253.4 3.4 238 9.5
2007-04-17 09:26:11 51°13.787 2°49.144 253.4 3.4 238 9.4
2007-04-17 09:26:16 51°13.785 2°49.137 253.9 3.5 238 9.5
2007-04-17 09:26:21 51°13.782 2°49.13 254.5 3.5 239 9.5
2007-04-17 09:26:26 51°13.78 2°49.124 254.7 3.5 240 9.5
2007-04-17 09:26:31 51°13.777 2°49.117 255.2 3.5 241 9.3
2007-04-17 09:26:36 51°13.775 2°49.11 255.8 3.5 241 9.4
2007-04-17 09:26:41 51°13.772 2°49.104 256.2 3.4 241 9.4
2007-04-17 09:26:46 51°13.77 2°49.097 256.8 3.5 242 9.5
2007-04-17 09:26:51 51°13.768 2°49.09 257.3 3.5 241 9.4
2007-04-17 09:26:56 51°13.765 2°49.084 258.1 3.5 241 9.4
2007-04-17 09:27:01 51°13.763 2°49.077 258.6 3.5 241 9.5
2007-04-17 09:27:06 51°13.761 2°49.071 258.9 3.4 242 9.4
2007-04-17 09:27:11 51°13.758 2°49.064 259 3.4 239 9.5
2007-04-17 09:27:17 51°13.756 2°49.056 259.5 3.5 242 9.3
2007-04-17 09:27:21 51°13.754 2°49.051 259.8 3.4 242 9.1
2007-04-17 09:27:26 51°13.752 2°49.044 260.2 3.4 242 9
2007-04-17 09:27:31 51°13.749 2°49.038 260.6 3.4 243 9.2
2007-04-17 09:27:36 51°13.747 2°49.031 261.1 3.4 243 9.4
2007-04-17 09:27:41 51°13.745 2°49.025 261.7 3.4 245 9.2
2007-04-17 09:27:46 51°13.743 2°49.018 262.6 3.4 246 9.4
2007-04-17 09:27:51 51°13.741 2°49.011 263.4 3.4 245 9.2
2007-04-17 09:27:56 51°13.739 2°49.005 263.5 3.4 247 9.3
2007-04-17 09:28:01 51°13.737 2°48.998 264.3 3.3 247 9
2007-04-17 09:28:06 51°13.735 2°48.991 264.8 3.3 245 9
2007-04-17 09:28:11 51°13.733 2°48.985 265.1 3.2 245 9.2
2007-04-17 09:28:16 51°13.731 2°48.978 265.4 3.3 243 8.8
2007-04-17 09:28:21 51°13.729 2°48.972 264.8 3.3 244 8.5
2007-04-17 09:28:26 51°13.728 2°48.965 264.9 3.3 245 8.7
2007-04-17 09:28:31 51°13.725 2°48.958 264.7 3.3 244 8.8
2007-04-17 09:28:36 51°13.724 2°48.952 264.4 3.3 246 8.7
2007-04-17 09:28:41 51°13.722 2°48.945 264.2 3.3 245 8.8
2007-04-17 09:28:46 51°13.72 2°48.938 264 3.3 244 8.7
2007-04-17 09:28:51 51°13.718 2°48.932 263.5 3.3 244 8.7
2007-04-17 09:28:56 51°13.716 2°48.925 262.9 3.3 243 8.8
2007-04-17 09:29:01 51°13.714 2°48.919 262.5 3.3 242 9
2007-04-17 09:29:06 51°13.711 2°48.912 262.4 3.3 242 9.1
2007-04-17 09:29:11 51°13.709 2°48.906 261.8 3.3 243 9
2007-04-17 09:29:16 51°13.707 2°48.899 261.2 3.3 243 9.1
2007-04-17 09:29:21 51°13.705 2°48.893 261.2 3.2 243 9.3
2007-04-17 09:29:26 51°13.703 2°48.886 261.2 3.3 243 9.4
2007-04-17 09:29:31 51°13.701 2°48.879 261.5 3.3 245 9.5
2007-04-17 09:29:36 51°13.699 2°48.873 261.8 3.3 244 9.5
2007-04-17 09:29:41 51°13.697 2°48.867 261.5 3.3 245 9.4
2007-04-17 09:29:46 51°13.695 2°48.86 261.5 3.3 243 9.5
2007-04-17 09:29:51 51°13.693 2°48.854 261.5 3.3 244 9.5
2007-04-17 09:29:56 51°13.691 2°48.847 261.6 3.3 244 9.6
2007-04-17 09:30:01 51°13.689 2°48.84 261.2 3.4 243 9.8
2007-04-17 09:30:06 51°13.687 2°48.834 261.1 3.3 244 9.5
2007-04-17 09:30:11 51°13.685 2°48.827 260.9 3.4 242 9.4
2007-04-17 09:30:16 51°13.683 2°48.821 260.4 3.4 243 9.6
2007-04-17 09:30:21 51°13.68 2°48.814 260.3 3.4 243 9.6
2007-04-17 09:30:26 51°13.678 2°48.807 260.2 3.4 243 9.6
2007-04-17 09:30:31 51°13.676 2°48.801 259.9 3.4 244 9.8
2007-04-17 09:30:36 51°13.674 2°48.794 259.8 3.3 243 9.7
2007-04-17 09:30:41 51°13.672 2°48.788 259.6 3.4 244 9.6
2007-04-17 09:30:46 51°13.67 2°48.781 259.6 3.3 244 9.5
2007-04-17 09:30:51 51°13.668 2°48.775 259.2 3.3 242 9.5
2007-04-17 09:30:56 51°13.665 2°48.768 259.1 3.4 242 9.4
2007-04-17 09:31:01 51°13.663 2°48.762 258.9 3.4 242 9.4
2007-04-17 09:31:06 51°13.661 2°48.755 258.6 3.3 241 9.6
2007-04-17 09:31:11 51°13.659 2°48.749 258.4 3.3 242 9.7
2007-04-17 09:31:16 51°13.657 2°48.742 258 3.3 242 9.7
2007-04-17 09:31:21 51°13.655 2°48.735 257.8 3.3 242 9.4
2007-04-17 09:31:26 51°13.652 2°48.729 257.5 3.3 242 9.5
2007-04-17 09:31:31 51°13.65 2°48.722 257.4 3.4 242 9.6
2007-04-17 09:31:36 51°13.648 2°48.716 257 3.4 240 9.6
2007-04-17 09:31:41 51°13.646 2°48.71 256.9 3.4 240 9.6
2007-04-17 09:31:46 51°13.643 2°48.703 256.2 3.4 240 9.6
2007-04-17 09:31:51 51°13.641 2°48.697 255.9 3.4 239 9.7
2007-04-17 09:31:56 51°13.638 2°48.69 255.4 3.3 240 9.6
2007-04-17 09:32:01 51°13.636 2°48.684 255.3 3.3 237 9.6
2007-04-17 09:32:06 51°13.634 2°48.678 254.8 3.3 239 9.7
2007-04-17 09:32:11 51°13.631 2°48.672 254.3 3.3 237 9.6
2007-04-17 09:32:16 51°13.629 2°48.665 253.3 3.3 238 9.6
2007-04-17 09:32:21 51°13.626 2°48.659 252.7 3.3 237 9.8
2007-04-17 09:32:26 51°13.624 2°48.653 251.8 3.4 237 9.9
2007-04-17 09:32:31 51°13.621 2°48.647 251.4 3.4 238 9.8
2007-04-17 09:32:36 51°13.618 2°48.64 250.7 3.5 237 9.7
2007-04-17 09:32:41 51°13.616 2°48.634 249.6 3.4 237 9.5
2007-04-17 09:32:46 51°13.613 2°48.628 249.3 3.4 235 9.7
2007-04-17 09:32:51 51°13.61 2°48.622 249.1 3.4 236 9.5
2007-04-17 09:32:56 51°13.608 2°48.616 248.6 3.4 234 9.6
2007-04-17 09:33:01 51°13.605 2°48.61 248.3 3.4 235 9.7
2007-04-17 09:33:06 51°13.602 2°48.603 247.7 3.4 234 9.9
2007-04-17 09:33:11 51°13.599 2°48.597 247.4 3.4 235 9.9
2007-04-17 09:33:16 51°13.596 2°48.591 247.2 3.4 235 9.9
2007-04-17 09:33:21 51°13.594 2°48.585 247.1 3.4 234 10
2007-04-17 09:33:26 51°13.591 2°48.579 246.9 3.5 236 9.8
2007-04-17 09:33:31 51°13.588 2°48.573 246.7 3.4 234 9.9
2007-04-17 09:33:36 51°13.585 2°48.567 246.6 3.4 234 9.8
2007-04-17 09:33:41 51°13.582 2°48.561 246.2 3.4 233 9.7
2007-04-17 09:33:46 51°13.58 2°48.555 246 3.4 232 9.5
2007-04-17 09:33:51 51°13.577 2°48.549 245.8 3.4 231 9.6
2007-04-17 09:33:56 51°13.574 2°48.543 245.5 3.4 230 9.8
2007-04-17 09:34:01 51°13.571 2°48.537 245 3.4 232 9.7
2007-04-17 09:34:06 51°13.568 2°48.531 244.5 3.4 233 9.6
2007-04-17 09:34:11 51°13.565 2°48.525 244.2 3.4 232 9.6
2007-04-17 09:34:16 51°13.562 2°48.519 244.1 3.4 234 9.5
2007-04-17 09:34:21 51°13.559 2°48.513 244.2 3.4 233 9.7
2007-04-17 09:34:26 51°13.557 2°48.507 244.5 3.4 233 9.9
2007-04-17 09:34:31 51°13.554 2°48.501 245 3.4 232 10
2007-04-17 09:34:36 51°13.551 2°48.495 245.5 3.4 234 9.9
2007-04-17 09:34:41 51°13.548 2°48.489 246.2 3.4 234 9.8
2007-04-17 09:34:46 51°13.545 2°48.483 247 3.3 236 9.6
2007-04-17 09:34:51 51°13.543 2°48.476 247.7 3.4 235 9.7
2007-04-17 09:34:56 51°13.54 2°48.47 248.2 3.4 237 9.7
2007-04-17 09:35:01 51°13.538 2°48.464 248.5 3.4 236 9.6
2007-04-17 09:35:06 51°13.535 2°48.458 248.9 3.4 237 9.4
2007-04-17 09:35:11 51°13.532 2°48.451 249.4 3.4 237 9.4
2007-04-17 09:35:16 51°13.53 2°48.445 249.7 3.4 237 9.4
2007-04-17 09:35:21 51°13.527 2°48.439 250.1 3.3 236 9.8
2007-04-17 09:35:26 51°13.525 2°48.433 250.5 3.3 238 9.7
2007-04-17 09:35:31 51°13.522 2°48.427 251.1 3.4 238 9.5
2007-04-17 09:35:36 51°13.52 2°48.421 251.1 3.4 237 9.5
2007-04-17 09:35:41 51°13.517 2°48.415 251.7 3.3 237 9.6
2007-04-17 09:35:46 51°13.515 2°48.408 251.8 3.3 238 9.6
2007-04-17 09:35:51 51°13.512 2°48.402 252.3 3.3 239 9.4
2007-04-17 09:35:56 51°13.51 2°48.396 252.5 3.3 239 9.2
2007-04-17 09:36:01 51°13.507 2°48.39 252.9 3.4 239 9.2
2007-04-17 09:36:06 51°13.505 2°48.383 253.4 3.3 239 9.4
2007-04-17 09:36:11 51°13.503 2°48.377 253.6 3.3 238 9.3
2007-04-17 09:36:16 51°13.5 2°48.371 254 3.3 237 9.2
2007-04-17 09:36:21 51°13.498 2°48.365 254.7 3.3 239 9.2
2007-04-17 09:36:26 51°13.496 2°48.358 255.3 3.3 241 9.1
2007-04-17 09:36:31 51°13.494 2°48.352 255.9 3.3 240 9.2
2007-04-17 09:36:36 51°13.491 2°48.345 256.3 3.2 242 9.4
2007-04-17 09:36:41 51°13.489 2°48.339 256.7 3.3 241 9.4
2007-04-17 09:36:46 51°13.487 2°48.333 257.1 3.2 242 9.6
2007-04-17 09:36:51 51°13.485 2°48.327 257.3 3.2 239 9.7
2007-04-17 09:36:56 51°13.483 2°48.321 257.4 3.2 241 9.8
2007-04-17 09:37:01 51°13.481 2°48.315 257.9 3.3 241 9.6
2007-04-17 09:37:06 51°13.479 2°48.308 258.3 3.2 241 9.8
2007-04-17 09:37:11 51°13.476 2°48.302 258.7 3.2 241 9.7
2007-04-17 09:37:16 51°13.475 2°48.295 259.3 3.2 242 9.9
2007-04-17 09:37:21 51°13.473 2°48.289 259.8 3.2 244 10
2007-04-17 09:37:26 51°13.471 2°48.282 260.1 3.2 246 10
2007-04-17 09:37:31 51°13.469 2°48.276 260.5 3.2 243 9.9
2007-04-17 09:37:36 51°13.467 2°48.27 260.7 3.2 245 9.9
2007-04-17 09:37:41 51°13.465 2°48.264 261 3.2 244 9.8
2007-04-17 09:37:46 51°13.463 2°48.257 261.5 3.2 246 9.5
2007-04-17 09:37:51 51°13.461 2°48.251 262 3.2 245 9.4
2007-04-17 09:37:56 51°13.459 2°48.245 262 3.2 246 9.7
2007-04-17 09:38:01 51°13.457 2°48.238 262.2 3.2 243 9.5
2007-04-17 09:38:06 51°13.455 2°48.232 262.3 3.2 244 9.2
2007-04-17 09:38:11 51°13.454 2°48.225 262.7 3.2 246 9.3
2007-04-17 09:38:16 51°13.452 2°48.219 263.2 3.1 246 9.4
2007-04-17 09:38:21 51°13.45 2°48.213 263.6 3.1 246 9.3
2007-04-17 09:38:26 51°13.448 2°48.206 264 3.2 248 9
2007-04-17 09:38:31 51°13.447 2°48.2 264.2 3.2 248 9.3
2007-04-17 09:38:36 51°13.445 2°48.193 264.7 3.2 249 9.2
2007-04-17 09:38:41 51°13.443 2°48.187 265 3.2 248 9.2
2007-04-17 09:38:46 51°13.441 2°48.18 265.1 3.2 248 9.3
2007-04-17 09:38:51 51°13.44 2°48.174 265.5 3.2 246 8.9
2007-04-17 09:38:56 51°13.438 2°48.168 265.6 3.1 247 8.8
2007-04-17 09:39:01 51°13.436 2°48.162 265.4 3.1 246 8.9
2007-04-17 09:39:06 51°13.434 2°48.155 265.5 3.2 248 9
2007-04-17 09:39:11 51°13.433 2°48.149 265.8 3.1 247 9.1
2007-04-17 09:39:16 51°13.431 2°48.143 266 3.1 248 9.1
2007-04-17 09:39:21 51°13.429 2°48.136 266.1 3.1 248 9.2
2007-04-17 09:39:26 51°13.428 2°48.13 266.3 3 248 9.4
2007-04-17 09:39:31 51°13.426 2°48.123 266.6 3 249 9.5
2007-04-17 09:39:36 51°13.424 2°48.117 267.1 3.1 249 9.6
2007-04-17 09:39:41 51°13.423 2°48.111 267.5 3.1 248 9.6
2007-04-17 09:39:46 51°13.421 2°48.105 267.8 3.1 249 9.5
2007-04-17 09:39:51 51°13.42 2°48.098 267.9 3.1 249 9.6
2007-04-17 09:39:56 51°13.418 2°48.092 268.4 3 250 9.6
2007-04-17 09:40:01 51°13.416 2°48.086 268.5 3.1 249 9.6
2007-04-17 09:40:06 51°13.415 2°48.079 268.7 3.1 251 9.7
2007-04-17 09:40:11 51°13.414 2°48.073 269 3.1 250 9.7
2007-04-17 09:40:16 51°13.412 2°48.067 269.4 3 251 9.9
2007-04-17 09:40:21 51°13.41 2°48.06 269.6 3 247 9.9
2007-04-17 09:40:26 51°13.409 2°48.054 269.6 3 248 9.8
2007-04-17 09:40:31 51°13.408 2°48.048 269.9 3.1 249 9.8
2007-04-17 09:40:36 51°13.406 2°48.041 269.9 3 252 9.8
2007-04-17 09:40:41 51°13.405 2°48.035 270 3.1 250 9.7
2007-04-17 09:40:46 51°13.403 2°48.029 270.2 3 250 9.8
2007-04-17 09:40:51 51°13.402 2°48.022 271 3 252 9.9
2007-04-17 09:40:56 51°13.401 2°48.016 272.3 3 252 10
2007-04-17 09:41:01 51°13.4 2°48.01 273.6 3 252 10
2007-04-17 09:41:06 51°13.399 2°48.004 274.7 2.9 255 9.9
2007-04-17 09:41:11 51°13.398 2°47.997 276.1 2.8 258 9.9
2007-04-17 09:41:16 51°13.397 2°47.991 278 2.9 257 9.9
2007-04-17 09:41:21 51°13.396 2°47.985 279.7 2.8 257 10
2007-04-17 09:41:26 51°13.395 2°47.979 281.5 2.8 258 10
2007-04-17 09:41:31 51°13.395 2°47.973 282.7 2.8 258 10
2007-04-17 09:41:36 51°13.394 2°47.967 283.7 2.7 258 10.1
2007-04-17 09:41:41 51°13.393 2°47.961 283.8 2.7 258 10.1
2007-04-17 09:41:46 51°13.392 2°47.956 284.4 2.7 260 10.1
2007-04-17 09:41:51 51°13.392 2°47.95 284.9 2.7 260 10.1
2007-04-17 09:41:56 51°13.391 2°47.944 285.7 2.7 261 10.2
2007-04-17 09:42:01 51°13.39 2°47.938 286.2 2.7 258 10.2
2007-04-17 09:42:06 51°13.39 2°47.932 286.6 2.6 261 10.2
2007-04-17 09:42:11 51°13.389 2°47.926 286.9 2.7 260 10.3
2007-04-17 09:42:16 51°13.388 2°47.921 287.1 2.6 260 10.3
2007-04-17 09:42:21 51°13.388 2°47.915 287.1 2.7 259 10.1
2007-04-17 09:42:26 51°13.387 2°47.909 286.8 2.6 258 10.2
2007-04-17 09:42:31 51°13.386 2°47.904 286.3 2.7 258 10.2
2007-04-17 09:42:36 51°13.386 2°47.898 285.6 2.6 259 10.1
2007-04-17 09:42:41 51°13.385 2°47.892 285.5 2.6 259 10.4
2007-04-17 09:42:46 51°13.385 2°47.886 285.3 2.6 261 10.4
2007-04-17 09:42:51 51°13.384 2°47.881 285.2 2.6 259 10.3
2007-04-17 09:42:56 51°13.384 2°47.875 286.3 2.6 261 10.3
2007-04-17 09:43:01 51°13.383 2°47.87 287.9 2.6 261 10.3
2007-04-17 09:43:06 51°13.383 2°47.864 289.9 2.4 266 10.4
2007-04-17 09:43:11 51°13.383 2°47.859 292.2 2.4 266 10.3
2007-04-17 09:43:16 51°13.383 2°47.854 294.6 2.4 269 10.1
2007-04-17 09:43:21 51°13.383 2°47.849 297.2 2.3 268 10.3
2007-04-17 09:43:26 51°13.383 2°47.844 299.7 2.3 271 10.3
2007-04-17 09:43:31 51°13.383 2°47.839 302.4 2.2 273 10.4
2007-04-17 09:43:36 51°13.383 2°47.834 304.8 2.1 273 10.4
2007-04-17 09:43:41 51°13.383 2°47.829 307.1 2.1 274 10.5
2007-04-17 09:43:46 51°13.383 2°47.825 308.7 2.1 275 10.4
2007-04-17 09:43:51 51°13.383 2°47.82 310.3 2.1 276 10.4
2007-04-17 09:43:56 51°13.384 2°47.815 311.9 2.2 276 10.4
2007-04-17 09:44:01 51°13.384 2°47.811 313.5 2 281 10.5
2007-04-17 09:44:06 51°13.385 2°47.806 314.9 2 279 10.6
2007-04-17 09:44:11 51°13.385 2°47.802 316.1 1.9 279 10.6
2007-04-17 09:44:16 51°13.385 2°47.798 317.5 1.8 276 10.5
2007-04-17 09:44:21 51°13.386 2°47.794 318.6 1.8 277 10.6
2007-04-17 09:44:26 51°13.386 2°47.79 319.1 1.7 273 10.6
2007-04-17 09:44:31 51°13.386 2°47.786 319.4 1.7 273 10.7
2007-04-17 09:44:36 51°13.386 2°47.783 319 1.6 271 10.5
2007-04-17 09:44:41 51°13.386 2°47.779 318.4 1.6 268 10.4
2007-04-17 09:44:46 51°13.386 2°47.776 317.9 1.4 271 10.6
2007-04-17 09:44:51 51°13.386 2°47.772 317.6 1.5 267 10.8
2007-04-17 09:44:56 51°13.386 2°47.769 317.2 1.4 266 10.8
2007-04-17 09:45:01 51°13.386 2°47.766 316.9 1.5 265 10.7
2007-04-17 09:45:06 51°13.386 2°47.763 316.4 1.4 263 10.6
2007-04-17 09:45:11 51°13.386 2°47.76 315.8 1.4 267 10.6
2007-04-17 09:45:17 51°13.385 2°47.756 315.4 1.4 264 10.6
2007-04-17 09:45:21 51°13.385 2°47.754 315.4 1.4 263 10.8
2007-04-17 09:45:26 51°13.385 2°47.751 315.1 1.4 262 10.9
2007-04-17 09:45:31 51°13.384 2°47.748 314.9 1.3 258 11
2007-04-17 09:45:36 51°13.384 2°47.745 314.6 1.4 260 10.9
2007-04-17 09:45:41 51°13.383 2°47.742 314.2 1.3 258 10.7
2007-04-17 09:45:46 51°13.383 2°47.739 314.3 1.3 254 10.7
2007-04-17 09:45:51 51°13.383 2°47.737 313.8 1.4 254 10.7
2007-04-17 09:45:56 51°13.382 2°47.734 313.5 1.3 248 10.9
2007-04-17 09:46:01 51°13.381 2°47.732 313 1.2 250 11
2007-04-17 09:46:06 51°13.381 2°47.73 312.6 1.2 249 11
2007-04-17 09:46:11 51°13.38 2°47.727 312.2 1.2 249 11.1
2007-04-17 09:46:16 51°13.38 2°47.725 312.1 1.2 249 10.9
2007-04-17 09:46:21 51°13.379 2°47.722 311.9 1.2 249 11
2007-04-17 09:46:26 51°13.378 2°47.72 311.9 1.2 245 10.9
2007-04-17 09:46:31 51°13.377 2°47.718 311.4 1.1 245 10.9
2007-04-17 09:46:36 51°13.377 2°47.715 311.3 1.1 244 10.9
2007-04-17 09:46:41 51°13.376 2°47.713 311 1.1 243 10.8
2007-04-17 09:46:46 51°13.375 2°47.711 310.9 1.1 242 10.8
2007-04-17 09:46:51 51°13.374 2°47.709 310.9 1.2 243 10.7
2007-04-17 09:46:56 51°13.373 2°47.707 310.8 1.2 240 10.7
2007-04-17 09:47:01 51°13.373 2°47.705 310.6 1.2 236 10.7
2007-04-17 09:47:06 51°13.372 2°47.703 310.3 1.1 235 10.6
2007-04-17 09:47:11 51°13.371 2°47.701 309.9 1.1 234 10.4
2007-04-17 09:47:17 51°13.37 2°47.698 309.8 1.2 237 10.4
2007-04-17 09:47:21 51°13.369 2°47.697 309.3 1.2 236 10.4
2007-04-17 09:47:26 51°13.368 2°47.694 308.9 1.2 237 10.7
2007-04-17 09:47:31 51°13.367 2°47.692 309 1.2 245 10.5
2007-04-17 09:47:36 51°13.367 2°47.689 309.1 1.3 252 10.4
2007-04-17 09:47:41 51°13.367 2°47.686 309.9 1.4 263 10.3
2007-04-17 09:47:46 51°13.367 2°47.683 311.5 1.6 269 10.1
2007-04-17 09:47:51 51°13.367 2°47.679 313.5 1.7 278 10.1
2007-04-17 09:47:56 51°13.368 2°47.675 317.2 1.9 288 10.3
2007-04-17 09:48:01 51°13.369 2°47.671 321.1 2.1 296 10.2
2007-04-17 09:48:06 51°13.37 2°47.667 325.1 2.2 305 10.2
2007-04-17 09:48:11 51°13.373 2°47.663 329.6 2.4 310 10.2
2007-04-17 09:48:16 51°13.375 2°47.659 333.6 2.4 319 10.1
2007-04-17 09:48:21 51°13.379 2°47.656 340 2.6 326 10.1
2007-04-17 09:48:26 51°13.382 2°47.653 345.5 2.6 333 10.3
2007-04-17 09:48:31 51°13.386 2°47.651 351.4 2.7 341 10.2
2007-04-17 09:48:36 51°13.39 2°47.65 356.3 2.9 352 10.3
2007-04-17 09:48:41 51°13.394 2°47.65 2.3 3 359 10.1
2007-04-17 09:48:46 51°13.398 2°47.651 8.6 3.1 10 10.5
2007-04-17 09:48:51 51°13.402 2°47.653 15.4 3.2 20 10.4
2007-04-17 09:48:56 51°13.406 2°47.657 24.2 3.4 30 10.5
2007-04-17 09:49:01 51°13.41 2°47.662 30.2 3.5 38 10.7
2007-04-17 09:49:06 51°13.413 2°47.668 38.1 3.6 48 10.9
2007-04-17 09:49:11 51°13.416 2°47.675 47.9 3.8 59 11
2007-04-17 09:49:16 51°13.418 2°47.683 56.5 4.1 69 11
2007-04-17 09:49:21 51°13.419 2°47.692 63.1 4.2 80 11
2007-04-17 09:49:26 51°13.42 2°47.702 71.4 4.3 85 11.1
2007-04-17 09:49:31 51°13.419 2°47.712 81.5 4.7 95 10.9
2007-04-17 09:49:36 51°13.418 2°47.723 89 4.9 96 10.9
2007-04-17 09:49:41 51°13.417 2°47.734 92.2 5.3 97 10.9
2007-04-17 09:49:46 51°13.417 2°47.747 93.1 5.9 94 11.1
2007-04-17 09:49:51 51°13.417 2°47.762 91.5 6.6 89 10.9
2007-04-17 09:49:56 51°13.418 2°47.777 86 7.2 81 11
2007-04-17 09:50:01 51°13.421 2°47.793 80.5 7.6 77 10.9
2007-04-17 09:50:06 51°13.424 2°47.81 76.9 8.1 75 10.9
2007-04-17 09:50:11 51°13.426 2°47.829 74.4 8.5 77 10.9
2007-04-17 09:50:16 51°13.429 2°47.847 75.1 9 77 10.9
2007-04-17 09:50:21 51°13.433 2°47.867 75.8 9.3 77 10.9
2007-04-17 09:50:26 51°13.436 2°47.888 75.9 9.5 77 10.7
2007-04-17 09:50:31 51°13.438 2°47.909 76.6 9.8 78 10.7
2007-04-17 09:50:36 51°13.441 2°47.93 77.6 9.9 77 10.6
2007-04-17 09:50:41 51°13.444 2°47.952 77.6 10 78 10.6
2007-04-17 09:50:46 51°13.447 2°47.974 77.6 10.1 78 10.6
2007-04-17 09:50:51 51°13.45 2°47.995 77.6 9.6 78 10.5
2007-04-17 09:50:56 51°13.452 2°48.014 77.8 9 79 10.5
2007-04-17 09:51:01 51°13.454 2°48.033 78.3 8.5 79 10.4
2007-04-17 09:51:06 51°13.456 2°48.05 77.9 7.6 80 10.4
2007-04-17 09:51:11 51°13.457 2°48.065 78.4 7.1 85 10.3
2007-04-17 09:51:16 51°13.457 2°48.08 81.5 6.5 91 10.3
2007-04-17 09:51:21 51°13.456 2°48.093 85.6 6.2 94 10.3
2007-04-17 09:51:26 51°13.455 2°48.106 90.1 5.7 101 10.1
2007-04-17 09:51:31 51°13.453 2°48.117 95.4 5.4 105 9.9
2007-04-17 09:51:36 51°13.451 2°48.128 99.4 5.1 108 9.8
2007-04-17 09:51:41 51°13.448 2°48.138 102.4 4.7 113 9.9
2007-04-17 09:51:46 51°13.446 2°48.147 105.2 4.3 116 9.8
2007-04-17 09:51:51 51°13.443 2°48.154 107.9 3.8 121 9.6
2007-04-17 09:51:56 51°13.44 2°48.161 111.1 3.4 127 9.4
2007-04-17 09:52:01 51°13.438 2°48.166 114.8 3.1 130 9.2
2007-04-17 09:52:06 51°13.435 2°48.17 118.4 2.6 135 9.1
2007-04-17 09:52:11 51°13.433 2°48.173 121.9 2.3 139 9.1
2007-04-17 09:52:16 51°13.431 2°48.175 125.7 1.8 149 9.2
2007-04-17 09:52:21 51°13.429 2°48.177 130.2 1.5 154 9.3
2007-04-17 09:52:26 51°13.427 2°48.177 133.9 1.2 167 9.4
2007-04-17 09:52:31 51°13.426 2°48.177 136.3 1 180 9.4
2007-04-17 09:52:36 51°13.425 2°48.177 137.7 0.8 199 9.4
2007-04-17 09:52:41 51°13.424 2°48.176 138.6 0.8 204 9.3
2007-04-17 09:52:46 51°13.423 2°48.175 140.5 0.8 208 9.2
2007-04-17 09:52:51 51°13.422 2°48.175 142.7 0.8 206 9.1
2007-04-17 09:52:56 51°13.421 2°48.174 144.4 0.8 205 9.1
2007-04-17 09:53:01 51°13.42 2°48.173 146.1 0.9 205 9
2007-04-17 09:53:06 51°13.419 2°48.172 147.4 0.9 201 8.9
2007-04-17 09:53:11 51°13.417 2°48.172 148.9 0.9 202 9
2007-04-17 09:53:16 51°13.416 2°48.171 150 0.9 205 9.1
2007-04-17 09:53:21 51°13.415 2°48.17 151 0.9 202 9.1
2007-04-17 09:53:26 51°13.414 2°48.17 152 0.9 204 9.2
2007-04-17 09:53:31 51°13.413 2°48.169 153.1 1 204 9.2
2007-04-17 09:53:36 51°13.412 2°48.168 154.5 0.9 205 9.2
2007-04-17 09:53:41 51°13.41 2°48.167 155.6 1 204 9.3
2007-04-17 09:53:46 51°13.409 2°48.166 156.6 1 201 9.3
2007-04-17 09:53:51 51°13.408 2°48.165 157.9 1 203 9.2
2007-04-17 09:53:56 51°13.407 2°48.164 158.9 1 201 9.3
2007-04-17 09:54:01 51°13.405 2°48.163 160 1 204 9.3
2007-04-17 09:54:06 51°13.404 2°48.162 161.1 1 203 9.5
2007-04-17 09:54:11 51°13.403 2°48.162 162.1 1 203 9.5
2007-04-17 09:54:16 51°13.401 2°48.161 162.8 1 204 9.5
2007-04-17 09:54:21 51°13.4 2°48.16 163.6 1 202 9.5
2007-04-17 09:54:26 51°13.399 2°48.159 164.1 1 203 9.5
2007-04-17 09:54:31 51°13.398 2°48.158 164.7 1.1 205 9.5
2007-04-17 09:54:37 51°13.396 2°48.157 165 1 201 9.4
2007-04-17 09:54:41 51°13.395 2°48.157 165.2 1.1 203 9.5
2007-04-17 09:54:46 51°13.393 2°48.156 165.3 1.1 202 9.5
2007-04-17 09:54:51 51°13.392 2°48.155 165.4 1 202 9.5
2007-04-17 09:54:56 51°13.391 2°48.154 165.4 1.1 202 9.4
2007-04-17 09:55:01 51°13.389 2°48.153 165.1 1.1 202 9.5
2007-04-17 09:55:06 51°13.388 2°48.153 164.8 1.1 198 9.5
2007-04-17 09:55:11 51°13.386 2°48.152 164.5 1.1 195 9.5
2007-04-17 09:55:16 51°13.385 2°48.152 163.8 1.1 196 9.5
2007-04-17 09:55:21 51°13.383 2°48.151 163 1.1 196 9.5
2007-04-17 09:55:26 51°13.382 2°48.15 162.2 1.1 194 9.5
2007-04-17 09:55:31 51°13.38 2°48.149 161.3 1.1 195 9.4
2007-04-17 09:55:36 51°13.379 2°48.149 160.2 1.1 194 9.4
2007-04-17 09:55:41 51°13.378 2°48.148 159.2 1.1 197 9.4
2007-04-17 09:55:46 51°13.376 2°48.147 158 1.1 193 9.4
2007-04-17 09:55:51 51°13.375 2°48.147 156.7 1.1 193 9.4
2007-04-17 09:55:56 51°13.373 2°48.146 155.3 1.1 191 9.4
2007-04-17 09:56:01 51°13.372 2°48.146 153.8 1.1 192 9.5
2007-04-17 09:56:06 51°13.37 2°48.146 152.7 1 190 9.5
2007-04-17 09:56:11 51°13.369 2°48.145 151.3 1.1 190 9.5
2007-04-17 09:56:16 51°13.367 2°48.145 150 1 183 9.4
2007-04-17 09:56:21 51°13.366 2°48.144 148.6 1 191 9.5
2007-04-17 09:56:26 51°13.365 2°48.144 147.3 1 192 9.4
2007-04-17 09:56:31 51°13.363 2°48.144 145.8 1 191 9.5
2007-04-17 09:56:36 51°13.362 2°48.143 144.1 1 190 9.5
2007-04-17 09:56:41 51°13.36 2°48.143 142.6 1.1 188 9.5
2007-04-17 09:56:46 51°13.359 2°48.143 140.9 1.1 175 9.4
2007-04-17 09:56:51 51°13.357 2°48.144 139.7 1.3 166 9.3
2007-04-17 09:56:56 51°13.355 2°48.145 139 1.5 163 9.3
2007-04-17 09:57:01 51°13.353 2°48.146 138.5 1.8 157 9.3
2007-04-17 09:57:06 51°13.35 2°48.148 136.8 1.8 152 9.4
2007-04-17 09:57:11 51°13.348 2°48.151 133.3 2 147 9.5
2007-04-17 09:57:16 51°13.345 2°48.154 128.7 2.1 139 9.4
2007-04-17 09:57:21 51°13.344 2°48.157 124.1 2.2 131 9.4
2007-04-17 09:57:26 51°13.342 2°48.161 119.3 2.3 127 9.5
2007-04-17 09:57:31 51°13.34 2°48.165 114.8 2.3 121 9.5
2007-04-17 09:57:36 51°13.338 2°48.17 110.6 2.4 116 9.4
2007-04-17 09:57:41 51°13.337 2°48.175 106 2.4 111 9.4
2007-04-17 09:57:46 51°13.336 2°48.18 101.6 2.5 106 9.6
2007-04-17 09:57:51 51°13.335 2°48.186 96.9 2.6 100 9.3
2007-04-17 09:57:56 51°13.335 2°48.192 91.9 2.7 92 9.6
2007-04-17 09:58:01 51°13.335 2°48.198 86.3 2.8 90 9.6
2007-04-17 09:58:06 51°13.335 2°48.204 81.2 2.8 84 9.4
2007-04-17 09:58:11 51°13.336 2°48.21 76.1 2.9 77 9.4
2007-04-17 09:58:16 51°13.338 2°48.217 71.5 3 73 9.5
2007-04-17 09:58:21 51°13.339 2°48.223 66.6 3.2 69 9.6
2007-04-17 09:58:26 51°13.341 2°48.23 63 3.5 69 9.5
2007-04-17 09:58:31 51°13.344 2°48.238 61 3.9 64 9.6
2007-04-17 09:58:36 51°13.346 2°48.246 60.2 4.6 64 9.7
2007-04-17 09:58:41 51°13.35 2°48.257 60.2 5.2 63 9.8
2007-04-17 09:58:46 51°13.354 2°48.268 60.2 5.9 62 9.6
2007-04-17 09:58:51 51°13.358 2°48.281 60.3 6.7 61 9.7
2007-04-17 09:58:56 51°13.363 2°48.296 60.6 7.4 62 9.7
2007-04-17 09:59:01 51°13.368 2°48.311 61 8.1 62 9.5
2007-04-17 09:59:06 51°13.374 2°48.328 61.6 8.6 62 9.6
2007-04-17 09:59:11 51°13.38 2°48.346 62.4 9.3 62 9.4
2007-04-17 09:59:16 51°13.386 2°48.366 62.8 10 62 9.5
2007-04-17 09:59:21 51°13.393 2°48.386 63.1 10.6 62 9.6
2007-04-17 09:59:26 51°13.401 2°48.408 63 11 62 9.9
2007-04-17 09:59:31 51°13.408 2°48.429 63 11.3 61 9.7
2007-04-17 09:59:36 51°13.417 2°48.451 61.3 11.6 58 9.8
2007-04-17 09:59:41 51°13.426 2°48.473 59.9 11.8 58 9.9
2007-04-17 09:59:46 51°13.435 2°48.495 58.7 12 56 9.5
2007-04-17 09:59:51 51°13.444 2°48.517 57.6 12.1 57 9.9
2007-04-17 09:59:56 51°13.453 2°48.539 57.4 12.2 54 9.5
2007-04-17 10:00:01 51°13.464 2°48.561 56.8 12.2 54 9.5
2007-04-17 10:00:06 51°13.473 2°48.583 55.9 12.3 55 9.6
2007-04-17 10:00:11 51°13.483 2°48.605 56.1 12.3 55 9.3
2007-04-17 10:00:16 51°13.493 2°48.628 56.6 12.4 55 9.7
2007-04-17 10:00:21 51°13.503 2°48.65 56.6 12.4 55 9.6
2007-04-17 10:00:26 51°13.513 2°48.673 56.7 12.4 56 9.5
2007-04-17 10:00:31 51°13.523 2°48.696 56.8 12.4 56 9.5
2007-04-17 10:00:36 51°13.532 2°48.718 57.2 12.4 55 9.2
2007-04-17 10:00:41 51°13.542 2°48.741 57 12.5 55 9.9
2007-04-17 10:00:46 51°13.552 2°48.763 56.6 12.5 55 9.9
2007-04-17 10:00:51 51°13.563 2°48.786 56.5 12.6 55 9.4
2007-04-17 10:00:56 51°13.573 2°48.809 56.7 12.5 55 10
2007-04-17 10:01:01 51°13.583 2°48.831 56.6 12.5 55 9.7
2007-04-17 10:01:06 51°13.593 2°48.854 56.7 12.5 55 9.6
2007-04-17 10:01:11 51°13.603 2°48.877 56.8 12.6 55 9.8
2007-04-17 10:01:17 51°13.615 2°48.904 56.5 12.6 55 9.7
2007-04-17 10:01:21 51°13.623 2°48.922 56.7 12.6 54 9.6
2007-04-17 10:01:26 51°13.633 2°48.945 56.3 12.6 54 9.5
2007-04-17 10:01:31 51°13.643 2°48.968 56.4 12.6 55 9
2007-04-17 10:01:36 51°13.653 2°48.99 56.9 12.5 54 8.9
2007-04-17 10:01:41 51°13.663 2°49.013 56.7 12.4 56 8.8
2007-04-17 10:01:46 51°13.673 2°49.035 57 12.5 55 9.2
2007-04-17 10:01:51 51°13.682 2°49.059 56.8 12.6 57 9.1
2007-04-17 10:01:56 51°13.692 2°49.081 57.3 12.6 55 9.5
2007-04-17 10:02:01 51°13.702 2°49.105 57.1 12.7 57 9.8
2007-04-17 10:02:06 51°13.712 2°49.128 57.4 12.7 55 9.8
2007-04-17 10:02:11 51°13.722 2°49.151 57.2 12.7 56 9.9
2007-04-17 10:02:16 51°13.732 2°49.174 57.2 12.7 55 10
2007-04-17 10:02:21 51°13.741 2°49.197 57.2 12.7 56 10.2
2007-04-17 10:02:26 51°13.751 2°49.22 57.2 12.6 55 10.2
2007-04-17 10:02:31 51°13.762 2°49.243 56.9 12.7 56 10
2007-04-17 10:02:36 51°13.772 2°49.266 57.3 12.7 55 10.2
2007-04-17 10:02:41 51°13.782 2°49.289 57.1 12.7 55 10.1
2007-04-17 10:02:46 51°13.792 2°49.312 57.1 12.6 55 10
2007-04-17 10:02:51 51°13.802 2°49.335 56.9 12.7 56 10
2007-04-17 10:02:56 51°13.812 2°49.358 57.3 12.6 55 10
2007-04-17 10:03:01 51°13.822 2°49.381 57.3 12.6 56 10
2007-04-17 10:03:06 51°13.832 2°49.404 57.5 12.7 55 10
2007-04-17 10:03:11 51°13.842 2°49.427 57.3 12.6 56 9.8
2007-04-17 10:03:17 51°13.854 2°49.454 57.6 12.6 55 10
2007-04-17 10:03:21 51°13.862 2°49.472 57.3 12.6 55 9.7
2007-04-17 10:03:26 51°13.872 2°49.495 56.9 12.6 55 9.6
2007-04-17 10:03:31 51°13.882 2°49.518 56.7 12.5 55 9.7
2007-04-17 10:03:36 51°13.892 2°49.541 56.6 12.6 55 10
2007-04-17 10:03:41 51°13.902 2°49.563 56.7 12.5 54 9.8
2007-04-17 10:03:46 51°13.912 2°49.586 56.5 12.5 55 10
2007-04-17 10:03:51 51°13.922 2°49.608 56.5 12.5 54 9.9
2007-04-17 10:03:56 51°13.932 2°49.631 56.6 12.5 55 9.8
2007-04-17 10:04:01 51°13.942 2°49.653 56.9 12.5 56 10
2007-04-17 10:04:06 51°13.951 2°49.676 57.3 12.4 56 9.7
2007-04-17 10:04:11 51°13.961 2°49.699 57.3 12.4 56 10
2007-04-17 10:04:16 51°13.971 2°49.722 57.6 12.4 56 9.8
2007-04-17 10:04:21 51°13.981 2°49.744 57.5 12.5 55 9.9
2007-04-17 10:04:26 51°13.991 2°49.767 56.9 12.4 55 9.9
2007-04-17 10:04:31 51°14 2°49.789 57.2 12.4 55 9.9
2007-04-17 10:04:36 51°14.01 2°49.812 56.9 12.5 56 10
2007-04-17 10:04:41 51°14.02 2°49.835 57.1 12.6 56 10.1
2007-04-17 10:04:46 51°14.03 2°49.858 57.3 12.6 56 10.1
2007-04-17 10:04:51 51°14.039 2°49.881 57.5 12.6 55 9.9
2007-04-17 10:04:56 51°14.049 2°49.904 57.4 12.6 55 10
2007-04-17 10:05:01 51°14.059 2°49.927 57.1 12.6 56 10.2
2007-04-17 10:05:06 51°14.069 2°49.949 57.1 12.6 55 10
2007-04-17 10:05:11 51°14.079 2°49.973 56.9 12.6 56 10.1
2007-04-17 10:05:16 51°14.089 2°49.995 57 12.7 55 10.3
2007-04-17 10:05:21 51°14.099 2°50.019 56.9 12.7 55 10.2
2007-04-17 10:05:26 51°14.109 2°50.041 56.7 12.7 55 10.4
2007-04-17 10:05:31 51°14.119 2°50.065 56.8 12.6 56 10.4
2007-04-17 10:05:36 51°14.129 2°50.088 57.1 12.7 55 10.4
2007-04-17 10:05:41 51°14.139 2°50.111 57 12.7 56 10.3
2007-04-17 10:05:46 51°14.149 2°50.134 57.1 12.7 55 10.3
2007-04-17 10:05:51 51°14.158 2°50.157 56.8 12.6 56 10.4
2007-04-17 10:05:56 51°14.168 2°50.18 56.9 12.7 55 10.3
2007-04-17 10:06:01 51°14.178 2°50.203 56.7 12.6 56 10.4
2007-04-17 10:06:06 51°14.188 2°50.227 56.9 12.8 56 10.6
2007-04-17 10:06:11 51°14.198 2°50.25 57.1 12.8 56 10.5
2007-04-17 10:06:16 51°14.208 2°50.273 57.1 12.7 56 10.6
2007-04-17 10:06:21 51°14.218 2°50.296 57.1 12.7 55 10.7
2007-04-17 10:06:26 51°14.228 2°50.32 56.7 12.7 57 10.8
2007-04-17 10:06:31 51°14.238 2°50.343 57.3 12.7 55 10.6
2007-04-17 10:06:36 51°14.248 2°50.366 56.9 12.7 57 10.7
2007-04-17 10:06:41 51°14.258 2°50.389 57.2 12.7 55 10.8
2007-04-17 10:06:46 51°14.268 2°50.412 56.8 12.7 56 10.7
2007-04-17 10:06:51 51°14.278 2°50.435 57 12.7 56 10.9
2007-04-17 10:06:56 51°14.288 2°50.458 57.3 12.6 57 10.5
2007-04-17 10:07:01 51°14.297 2°50.482 57.3 12.6 56 10.9
2007-04-17 10:07:06 51°14.307 2°50.505 57.4 12.5 56 10.7
2007-04-17 10:07:11 51°14.316 2°50.526 57.3 11.8 56 10.9
2007-04-17 10:07:16 51°14.325 2°50.546 57.1 10.9 57 10.8
2007-04-17 10:07:21 51°14.333 2°50.565 57.6 10.3 56 10.9
2007-04-17 10:07:26 51°14.34 2°50.583 57.3 9.7 55 11